Eskdale, Utah
Current Conditions -  °F | °C
As of 11:52 PM on Sunday 21 Dec 2014 (Local Time) from KMLF Reporting Station
Broken Clouds Broken Clouds  
Wind Chill: 32°   Ceiling: 8500
Heat Index: 36°   Visibility: 10mi
Dew Point: 32°   Wind: 5mph
Humidity: 86%   Direction: 210°SSW
Pressure: 30.05"   Gusts: NA
Location:  39.0932°N, 113.543°W
Report Text: KMLF 220652Z AUTO 21004KT 10SM BKN085 02/00 A3005 RMK AO2 SLP167 T00220000 401330006 TSNO
Loading
Personal Weather Stations






























Interactive Weather Map New forecast layout! Learn more

10-Day Weather Forecast

Advertisements
Track Severe Weather on mobile